Time;durP1;ratioP1;P1;durP2;ratioP2;P2;SDS_P1;SDS_P2;PMS_P1;PMS_P2;Temp;Humidity;BMP_temperature;BMP_pressure;BME280_temperature;BME280_humidity;BME280_pressure;Samples;Min_cycle;Max_cycle;Signal;HPM_P1;HPM_P2
2021/11/10 00:01:37;;;;;;;8.30;5.85;;;;;;;;;;5055057;28;20025;-75
2021/11/10 00:04:03;;;;;;;8.60;6.95;;;;;;;;;;5055032;28;20135;-75
2021/11/10 00:06:30;;;;;;;8.25;6.97;;;;;;;;;;5054848;28;20086;-80
2021/11/10 00:08:56;;;;;;;7.13;6.43;;;;;;;;;;5053630;28;20028;-77
2021/11/10 00:11:22;;;;;;;9.95;6.75;;;;;;;;;;5054839;28;20361;-74
2021/11/10 00:13:48;;;;;;;7.85;6.75;;;;;;;;;;5053454;28;20540;-76
2021/11/10 00:16:14;;;;;;;11.05;7.38;;;;;;;;;;5053530;28;20040;-76
2021/11/10 00:18:40;;;;;;;9.30;7.03;;;;;;;;;;5054639;28;20067;-77
2021/11/10 00:21:06;;;;;;;10.13;7.07;;;;;;;;;;5054459;28;20496;-77
2021/11/10 00:23:33;;;;;;;8.45;7.00;;;;;;;;;;5053293;28;20033;-79
2021/11/10 00:26:00;;;;;;;8.60;6.05;;;;;;;;;;5054643;28;20025;-79
2021/11/10 00:28:27;;;;;;;9.15;6.05;;;;;;;;;;5054502;28;20032;-74
2021/11/10 00:30:53;;;;;;;8.80;7.22;;;;;;;;;;5054602;28;20108;-77
2021/11/10 00:33:19;;;;;;;8.82;7.00;;;;;;;;;;5053015;28;20506;-76
2021/11/10 00:35:45;;;;;;;9.45;7.53;;;;;;;;;;5054415;28;20025;-77
2021/11/10 00:38:11;;;;;;;10.23;7.53;;;;;;;;;;5053147;28;20112;-80
2021/11/10 00:40:38;;;;;;;9.23;6.97;;;;;;;;;;5054173;28;20025;-78
2021/11/10 00:43:04;;;;;;;9.27;6.88;;;;;;;;;;5054099;28;20487;-77
2021/11/10 00:45:31;;;;;;;7.53;6.50;;;;;;;;;;5054151;28;20102;-73
2021/11/10 00:47:57;;;;;;;9.02;6.68;;;;;;;;;;5054207;28;20028;-78
2021/11/10 00:50:24;;;;;;;11.55;7.90;;;;;;;;;;5054115;28;20499;-77
2021/11/10 00:52:50;;;;;;;10.13;8.15;;;;;;;;;;5053991;28;20037;-76
2021/11/10 00:55:16;;;;;;;11.35;8.40;;;;;;;;;;5054159;28;20128;-81
2021/11/10 00:57:42;;;;;;;10.20;8.02;;;;;;;;;;5053990;28;20380;-79
2021/11/10 01:00:10;;;;;;;11.45;8.15;;;;;;;;;;5054013;28;20395;-76
2021/11/10 01:02:36;;;;;;;10.00;7.03;;;;;;;;;;5053589;28;20419;-76
2021/11/10 01:05:03;;;;;;;8.65;6.60;;;;;;;;;;5054014;28;20380;-75
2021/11/10 01:07:29;;;;;;;8.60;6.57;;;;;;;;;;5053813;28;20133;-76
2021/11/10 01:10:00;;;;;;;9.60;6.28;;;;;;;;;;5053750;28;20419;-79
2021/11/10 01:12:27;;;;;;;6.97;5.50;;;;;;;;;;5053649;28;20036;-77
2021/11/10 01:14:53;;;;;;;7.93;6.53;;;;;;;;;;5053809;28;20057;-75
2021/11/10 01:17:20;;;;;;;8.35;6.43;;;;;;;;;;5053449;28;20025;-77
2021/11/10 01:19:46;;;;;;;16.88;10.68;;;;;;;;;;5053646;28;20029;-76
2021/11/10 01:22:12;;;;;;;10.02;7.22;;;;;;;;;;5053489;28;20060;-78
2021/11/10 01:24:39;;;;;;;7.35;6.20;;;;;;;;;;5053585;28;20052;-76
2021/11/10 01:27:05;;;;;;;9.35;7.63;;;;;;;;;;5053534;28;20086;-75
2021/11/10 01:29:31;;;;;;;7.00;6.00;;;;;;;;;;5053462;28;20029;-77
2021/11/10 01:31:57;;;;;;;9.80;7.85;;;;;;;;;;5053512;28;20060;-75
2021/11/10 01:34:23;;;;;;;10.57;8.07;;;;;;;;;;5052015;28;20047;-78
2021/11/10 01:36:49;;;;;;;7.80;6.85;;;;;;;;;;5053472;28;20096;-78
2021/11/10 01:39:16;;;;;;;9.52;6.97;;;;;;;;;;5053333;28;20025;-83
2021/11/10 01:41:47;;;;;;;8.60;7.32;;;;;;;;;;5053316;28;20029;-78
2021/11/10 01:44:14;;;;;;;8.00;6.90;;;;;;;;;;5052002;28;20033;-77
2021/11/10 01:46:40;;;;;;;10.27;7.13;;;;;;;;;;5053386;28;20047;-77
2021/11/10 01:49:06;;;;;;;8.30;6.47;;;;;;;;;;5051955;28;20029;-76
2021/11/10 01:51:32;;;;;;;8.23;6.68;;;;;;;;;;5053244;28;20100;-76
2021/11/10 01:53:58;;;;;;;8.43;6.85;;;;;;;;;;5053175;28;20029;-77
2021/11/10 01:56:24;;;;;;;7.97;6.10;;;;;;;;;;5053100;28;20029;-76
2021/11/10 01:58:51;;;;;;;10.40;7.47;;;;;;;;;;5053119;28;20040;-74
2021/11/10 02:01:17;;;;;;;8.52;6.80;;;;;;;;;;5051822;28;20040;-76
2021/11/10 02:03:44;;;;;;;10.15;6.75;;;;;;;;;;5053061;28;20013;-76
2021/11/10 02:06:10;;;;;;;8.32;6.82;;;;;;;;;;5053091;28;20040;-75
2021/11/10 02:08:37;;;;;;;7.70;5.72;;;;;;;;;;5053091;28;20032;-74
2021/11/10 02:11:03;;;;;;;7.45;5.68;;;;;;;;;;5053120;28;20381;-74
2021/11/10 02:13:29;;;;;;;6.90;5.93;;;;;;;;;;5054590;28;20033;-76
2021/11/10 02:15:55;;;;;;;7.03;5.88;;;;;;;;;;5055791;28;20025;-75
2021/11/10 02:18:21;;;;;;;7.90;6.32;;;;;;;;;;5056913;28;20036;-78
2021/11/10 02:20:49;;;;;;;7.60;6.28;;;;;;;;;;5056586;28;20114;-78
2021/11/10 02:23:18;;;;;;;6.53;5.50;;;;;;;;;;5056874;28;20495;-77
2021/11/10 02:25:44;;;;;;;8.75;6.97;;;;;;;;;;5055653;28;20369;-74
2021/11/10 02:28:10;;;;;;;10.90;8.30;;;;;;;;;;5056742;28;20029;-79
2021/11/10 02:30:36;;;;;;;8.15;7.05;;;;;;;;;;5057086;28;20021;-75
2021/11/10 02:33:04;;;;;;;8.77;6.93;;;;;;;;;;5055372;28;20102;-75
2021/11/10 02:35:31;;;;;;;8.50;7.45;;;;;;;;;;5056546;28;20065;-74
2021/11/10 02:37:58;;;;;;;9.13;6.53;;;;;;;;;;5056672;28;20021;-77
2021/11/10 02:40:26;;;;;;;8.57;7.43;;;;;;;;;;5055229;28;20036;-74
2021/11/10 02:42:53;;;;;;;8.50;6.93;;;;;;;;;;5056552;28;20060;-77
2021/11/10 02:45:19;;;;;;;9.50;6.65;;;;;;;;;;5056513;28;20051;-75
2021/11/10 02:47:45;;;;;;;8.77;6.45;;;;;;;;;;5056360;28;20031;-78
2021/11/10 02:50:11;;;;;;;8.65;7.50;;;;;;;;;;5056387;28;20025;-76
2021/11/10 02:52:38;;;;;;;9.55;8.15;;;;;;;;;;5056327;28;20033;-76
2021/11/10 02:55:04;;;;;;;9.93;6.72;;;;;;;;;;5056383;28;20056;-76
2021/11/10 02:57:30;;;;;;;11.65;7.55;;;;;;;;;;5056173;28;20032;-78
2021/11/10 02:59:56;;;;;;;9.05;6.75;;;;;;;;;;5056184;28;20540;-77
2021/11/10 03:02:24;;;;;;;10.70;8.18;;;;;;;;;;5056111;28;20057;-78
2021/11/10 03:04:50;;;;;;;9.13;7.20;;;;;;;;;;5056247;28;20036;-76
2021/11/10 03:07:16;;;;;;;7.53;5.75;;;;;;;;;;5056052;28;20108;-79
2021/11/10 03:09:43;;;;;;;6.82;6.05;;;;;;;;;;5056038;28;20025;-77
2021/11/10 03:12:10;;;;;;;8.55;6.75;;;;;;;;;;5055891;28;20022;-77
2021/11/10 03:14:37;;;;;;;9.18;6.43;;;;;;;;;;5054554;28;20071;-78
2021/11/10 03:17:05;;;;;;;8.82;7.30;;;;;;;;;;5055892;28;20021;-78
2021/11/10 03:19:31;;;;;;;8.25;6.50;;;;;;;;;;5054435;28;20516;-73
2021/11/10 03:21:58;;;;;;;8.65;6.68;;;;;;;;;;5054294;28;20518;-76
2021/11/10 03:24:24;;;;;;;7.63;6.07;;;;;;;;;;5054351;28;20025;-77
2021/11/10 03:26:50;;;;;;;8.68;6.65;;;;;;;;;;5054395;28;20025;-75
2021/11/10 03:29:16;;;;;;;7.68;5.72;;;;;;;;;;5055578;28;20029;-74
2021/11/10 03:31:42;;;;;;;8.43;6.22;;;;;;;;;;5055590;28;20031;-76
2021/11/10 03:34:10;;;;;;;7.80;7.00;;;;;;;;;;5055399;28;20533;-75
2021/11/10 03:36:37;;;;;;;10.13;7.07;;;;;;;;;;5054329;28;20025;-73
2021/11/10 03:39:04;;;;;;;8.35;6.55;;;;;;;;;;5055505;28;20040;-76
2021/11/10 03:41:31;;;;;;;9.68;6.50;;;;;;;;;;5055420;28;20056;-75
2021/11/10 03:43:57;;;;;;;8.82;6.80;;;;;;;;;;5055388;28;20590;-73
2021/11/10 03:46:24;;;;;;;11.48;8.45;;;;;;;;;;5055057;28;20104;-77
2021/11/10 03:48:50;;;;;;;8.52;7.03;;;;;;;;;;5055270;28;20037;-75
2021/11/10 03:51:17;;;;;;;8.63;7.45;;;;;;;;;;5055290;28;20112;-75
2021/11/10 03:53:43;;;;;;;8.73;6.68;;;;;;;;;;5055284;28;20037;-74
2021/11/10 03:56:10;;;;;;;7.30;5.45;;;;;;;;;;5053847;28;20029;-77
2021/11/10 03:58:36;;;;;;;7.20;5.97;;;;;;;;;;5055161;28;20025;-75
2021/11/10 04:01:03;;;;;;;7.72;5.55;;;;;;;;;;5055034;28;20033;-76
2021/11/10 04:03:29;;;;;;;7.40;5.72;;;;;;;;;;5054969;28;20033;-76
2021/11/10 04:05:55;;;;;;;8.20;6.03;;;;;;;;;;5054908;28;20060;-75
2021/11/10 04:08:21;;;;;;;6.47;5.28;;;;;;;;;;5053589;28;20086;-74
2021/11/10 04:10:48;;;;;;;7.28;5.68;;;;;;;;;;5054861;28;20025;-76
2021/11/10 04:13:15;;;;;;;11.30;7.38;;;;;;;;;;5053432;28;20060;-77
2021/11/10 04:15:41;;;;;;;14.27;7.18;;;;;;;;;;5054730;28;20131;-75
2021/11/10 04:18:07;;;;;;;9.20;5.78;;;;;;;;;;5054762;28;20033;-76
2021/11/10 04:20:33;;;;;;;7.93;6.32;;;;;;;;;;5054469;28;20041;-75
2021/11/10 04:23:00;;;;;;;10.23;7.07;;;;;;;;;;5054683;28;20487;-76
2021/11/10 04:25:26;;;;;;;9.10;7.10;;;;;;;;;;5053275;28;20017;-76
2021/11/10 04:27:53;;;;;;;10.00;7.68;;;;;;;;;;5054699;28;20025;-77
2021/11/10 04:30:19;;;;;;;9.13;6.95;;;;;;;;;;5054472;28;20142;-75
2021/11/10 04:32:46;;;;;;;12.45;8.30;;;;;;;;;;5053149;28;20491;-75
2021/11/10 04:35:13;;;;;;;12.27;9.30;;;;;;;;;;5052953;28;20056;-75
2021/11/10 04:37:40;;;;;;;12.18;8.32;;;;;;;;;;5054272;28;20021;-73
2021/11/10 04:40:07;;;;;;;11.98;8.68;;;;;;;;;;5053043;28;20021;-74
2021/11/10 04:42:33;;;;;;;14.85;11.07;;;;;;;;;;5054268;28;20029;-75
2021/11/10 04:45:08;;;;;;;18.20;12.70;;;;;;;;;;5054174;28;20021;-76
2021/11/10 04:47:36;;;;;;;17.67;13.40;;;;;;;;;;5054137;28;20025;-77
2021/11/10 04:50:03;;;;;;;31.63;21.05;;;;;;;;;;5053871;28;20037;-77
2021/11/10 04:52:29;;;;;;;18.00;13.63;;;;;;;;;;5053915;28;20037;-76
2021/11/10 04:54:55;;;;;;;17.70;14.88;;;;;;;;;;5054015;28;20439;-78
2021/11/10 04:57:21;;;;;;;23.25;16.55;;;;;;;;;;5053962;28;20109;-76
2021/11/10 04:59:47;;;;;;;18.27;14.18;;;;;;;;;;5053862;28;20033;-76
2021/11/10 05:04:41;;;;;;;15.35;11.98;;;;;;;;;;5053280;28;20032;-78
2021/11/10 05:07:07;;;;;;;14.40;11.35;;;;;;;;;;5053821;28;20056;-76
2021/11/10 05:09:34;;;;;;;15.48;12.60;;;;;;;;;;5053997;28;20380;-79
2021/11/10 05:12:00;;;;;;;14.05;11.55;;;;;;;;;;5053763;28;20033;-74
2021/11/10 05:14:26;;;;;;;12.10;9.50;;;;;;;;;;5052519;28;20049;-74
2021/11/10 05:16:52;;;;;;;17.42;11.40;;;;;;;;;;5053706;28;20032;-76
2021/11/10 05:19:19;;;;;;;15.93;12.27;;;;;;;;;;5053506;28;20033;-75
2021/11/10 05:21:46;;;;;;;17.58;13.60;;;;;;;;;;5053428;28;20060;-79
2021/11/10 05:24:13;;;;;;;20.10;14.80;;;;;;;;;;5053918;28;20518;-76
2021/11/10 05:26:41;;;;;;;17.13;14.27;;;;;;;;;;5053460;28;20055;-74
2021/11/10 05:29:08;;;;;;;17.70;14.63;;;;;;;;;;5052314;28;20033;-74
2021/11/10 05:31:34;;;;;;;20.15;15.65;;;;;;;;;;5053625;28;20052;-75
2021/11/10 05:34:00;;;;;;;19.70;16.23;;;;;;;;;;5053496;28;20033;-72
2021/11/10 05:36:27;;;;;;;19.95;15.05;;;;;;;;;;5053336;28;20029;-74
2021/11/10 05:38:53;;;;;;;40.03;27.52;;;;;;;;;;5053400;28;20036;-75
2021/11/10 05:41:20;;;;;;;22.92;16.88;;;;;;;;;;5053253;28;20024;-73
2021/11/10 05:43:46;;;;;;;142.30;85.13;;;;;;;;;;5053202;28;20496;-75
2021/11/10 05:46:12;;;;;;;33.58;25.52;;;;;;;;;;5053413;28;20065;-76
2021/11/10 05:48:38;;;;;;;29.05;20.40;;;;;;;;;;5052419;28;20028;-78
2021/11/10 05:51:05;;;;;;;21.10;16.48;;;;;;;;;;5051978;28;20079;-73
2021/11/10 05:53:32;;;;;;;92.13;49.92;;;;;;;;;;5053004;28;20036;-75
2021/11/10 05:55:58;;;;;;;61.38;34.83;;;;;;;;;;5052984;28;20043;-76
2021/11/10 05:58:27;;;;;;;31.65;21.15;;;;;;;;;;5053171;28;20025;-76
2021/11/10 06:00:56;;;;;;;27.15;21.25;;;;;;;;;;5053191;28;20029;-77
2021/11/10 06:03:22;;;;;;;22.45;16.17;;;;;;;;;;5053143;28;20029;-77
2021/11/10 06:05:52;;;;;;;14.05;12.18;;;;;;;;;;5051694;28;20029;-78
2021/11/10 06:08:18;;;;;;;16.67;13.05;;;;;;;;;;5052240;28;20032;-74
2021/11/10 06:10:44;;;;;;;16.45;13.75;;;;;;;;;;5052734;28;20033;-73
2021/11/10 06:13:10;;;;;;;19.02;14.98;;;;;;;;;;5052856;28;20369;-75
2021/11/10 06:15:36;;;;;;;17.60;14.65;;;;;;;;;;5052797;28;20375;-78
2021/11/10 06:18:02;;;;;;;19.08;15.02;;;;;;;;;;5051283;28;20119;-75
2021/11/10 06:20:28;;;;;;;19.15;14.60;;;;;;;;;;5052853;28;20492;-71
2021/11/10 06:22:55;;;;;;;22.17;15.43;;;;;;;;;;5051543;28;20037;-74
2021/11/10 06:25:21;;;;;;;20.52;16.50;;;;;;;;;;5049351;28;20025;-73
2021/11/10 06:27:47;;;;;;;16.70;13.10;;;;;;;;;;5051138;28;20036;-76
2021/11/10 06:30:14;;;;;;;23.30;18.13;;;;;;;;;;5050624;28;20436;-75
2021/11/10 06:32:45;;;;;;;21.70;17.13;;;;;;;;;;5048461;28;20151;-75
2021/11/10 06:35:11;;;;;;;23.17;20.13;;;;;;;;;;5045284;28;20056;-74
2021/11/10 06:37:38;;;;;;;19.70;17.08;;;;;;;;;;5042212;28;20523;-75
2021/11/10 06:40:04;;;;;;;39.53;29.38;;;;;;;;;;5048173;28;20033;-75
2021/11/10 06:42:30;;;;;;;59.42;40.10;;;;;;;;;;5049979;28;20029;-75
2021/11/10 06:44:57;;;;;;;58.25;37.90;;;;;;;;;;5042912;28;20495;-76
2021/11/10 06:47:24;;;;;;;48.65;32.85;;;;;;;;;;5050150;28;20028;-73
2021/11/10 06:49:50;;;;;;;49.58;31.00;;;;;;;;;;5047459;28;20025;-74
2021/11/10 06:52:16;;;;;;;54.90;34.22;;;;;;;;;;5048658;28;20498;-74
2021/11/10 06:54:42;;;;;;;79.97;45.78;;;;;;;;;;5037049;28;20037;-74
2021/11/10 06:57:08;;;;;;;85.72;46.65;;;;;;;;;;5036186;28;20296;-73
2021/11/10 06:59:35;;;;;;;74.68;44.20;;;;;;;;;;5031700;28;20044;-74
2021/11/10 07:02:03;;;;;;;61.47;40.55;;;;;;;;;;5033395;28;20091;-75
2021/11/10 07:04:29;;;;;;;57.42;41.55;;;;;;;;;;5033780;28;20035;-77
2021/11/10 07:06:55;;;;;;;85.13;57.17;;;;;;;;;;5033661;28;20036;-75
2021/11/10 07:09:21;;;;;;;42.72;30.92;;;;;;;;;;5032100;28;20022;-79
2021/11/10 07:11:47;;;;;;;39.42;26.17;;;;;;;;;;5033759;28;20029;-75
2021/11/10 07:14:13;;;;;;;63.85;41.53;;;;;;;;;;5033501;28;20095;-75
2021/11/10 07:16:40;;;;;;;36.42;22.63;;;;;;;;;;5044513;28;20029;-74
2021/11/10 07:19:06;;;;;;;29.90;20.70;;;;;;;;;;5053326;28;20029;-77
2021/11/10 07:21:44;;;;;;;28.63;19.90;;;;;;;;;;5052593;28;20053;-76
2021/11/10 07:24:20;;;;;;;27.75;17.00;;;;;;;;;;5052927;28;20430;-75
2021/11/10 07:26:46;;;;;;;22.15;14.52;;;;;;;;;;5053514;28;20537;-76
2021/11/10 07:29:13;;;;;;;23.92;14.68;;;;;;;;;;5053369;28;20480;-75
2021/11/10 07:31:39;;;;;;;23.85;14.57;;;;;;;;;;5052943;28;20490;-75
2021/11/10 07:34:05;;;;;;;19.05;14.00;;;;;;;;;;5053029;28;20033;-73
2021/11/10 07:36:31;;;;;;;25.17;14.68;;;;;;;;;;5051114;28;20123;-74
2021/11/10 07:38:58;;;;;;;24.98;17.13;;;;;;;;;;5053209;28;20025;-76
2021/11/10 07:41:28;;;;;;;29.65;19.45;;;;;;;;;;5052990;28;20044;-75
2021/11/10 07:43:54;;;;;;;21.90;15.07;;;;;;;;;;5053054;28;20049;-74
2021/11/10 07:46:22;;;;;;;25.77;16.45;;;;;;;;;;5052794;28;20032;-74
2021/11/10 07:48:51;;;;;;;36.30;21.55;;;;;;;;;;5052424;28;20056;-73
2021/11/10 07:51:18;;;;;;;26.83;17.90;;;;;;;;;;5041599;28;20029;-75
2021/11/10 07:53:44;;;;;;;91.82;62.05;;;;;;;;;;5035404;28;20060;-76
2021/11/10 07:56:10;;;;;;;28.25;19.15;;;;;;;;;;5049649;28;20029;-77
2021/11/10 07:58:38;;;;;;;36.15;21.02;;;;;;;;;;5051262;28;20076;-76
2021/11/10 08:01:04;;;;;;;28.27;18.23;;;;;;;;;;5050661;28;20163;-78
2021/11/10 08:03:30;;;;;;;30.38;18.90;;;;;;;;;;5053012;28;20025;-78
2021/11/10 08:05:57;;;;;;;30.95;20.48;;;;;;;;;;5052527;28;20037;-77
2021/11/10 08:08:23;;;;;;;26.45;17.88;;;;;;;;;;5052979;28;20379;-77
2021/11/10 08:10:50;;;;;;;25.60;16.98;;;;;;;;;;5051950;28;20040;-74
2021/11/10 08:13:16;;;;;;;25.92;17.52;;;;;;;;;;5051096;28;20499;-74
2021/11/10 08:15:42;;;;;;;24.50;15.85;;;;;;;;;;5050731;28;20385;-75
2021/11/10 08:18:08;;;;;;;23.38;16.90;;;;;;;;;;5048134;28;20245;-75
2021/11/10 08:20:35;;;;;;;31.35;21.30;;;;;;;;;;5049256;28;20061;-75
2021/11/10 08:23:01;;;;;;;28.58;17.95;;;;;;;;;;5051066;28;20112;-78
2021/11/10 08:25:27;;;;;;;23.90;15.15;;;;;;;;;;5052465;28;20484;-75
2021/11/10 08:27:56;;;;;;;32.63;18.23;;;;;;;;;;5050602;28;20025;-75
2021/11/10 08:30:23;;;;;;;28.83;18.20;;;;;;;;;;5051850;28;20115;-74
2021/11/10 08:32:50;;;;;;;25.17;17.02;;;;;;;;;;5051363;28;20044;-79
2021/11/10 08:35:16;;;;;;;20.33;13.05;;;;;;;;;;5051620;28;20025;-75
2021/11/10 08:37:42;;;;;;;15.80;10.60;;;;;;;;;;5051581;28;20108;-76
2021/11/10 08:40:10;;;;;;;18.73;11.32;;;;;;;;;;5051299;28;20039;-75
2021/11/10 08:42:36;;;;;;;19.90;13.35;;;;;;;;;;5052045;28;20113;-79
2021/11/10 08:45:11;;;;;;;26.50;15.57;;;;;;;;;;5051633;28;20039;-75
2021/11/10 08:47:38;;;;;;;52.53;34.60;;;;;;;;;;5051882;28;20039;-73
2021/11/10 08:50:05;;;;;;;17.88;13.27;;;;;;;;;;5051659;28;20076;-80
2021/11/10 08:52:31;;;;;;;30.83;21.13;;;;;;;;;;5051885;28;20025;-77
2021/11/10 08:54:58;;;;;;;22.08;16.90;;;;;;;;;;5049854;28;20040;-75
2021/11/10 08:57:24;;;;;;;22.25;14.35;;;;;;;;;;5050015;28;20029;-75
2021/11/10 08:59:50;;;;;;;31.55;20.65;;;;;;;;;;5047677;28;20087;-74
2021/11/10 09:02:16;;;;;;;23.10;15.65;;;;;;;;;;5031809;28;20048;-78
2021/11/10 09:04:42;;;;;;;16.30;11.57;;;;;;;;;;5036397;28;20441;-79
2021/11/10 09:07:09;;;;;;;16.60;11.05;;;;;;;;;;5041684;28;20029;-76
2021/11/10 09:09:35;;;;;;;17.02;12.27;;;;;;;;;;5031547;28;20037;-76
2021/11/10 09:12:02;;;;;;;24.20;14.20;;;;;;;;;;5031066;28;20025;-75
2021/11/10 09:14:28;;;;;;;17.55;10.82;;;;;;;;;;5030167;28;20037;-75
2021/11/10 09:16:54;;;;;;;18.50;12.15;;;;;;;;;;5029844;28;20029;-80
2021/11/10 09:19:20;;;;;;;29.80;15.40;;;;;;;;;;5031182;28;20504;-79
2021/11/10 09:21:46;;;;;;;25.05;18.42;;;;;;;;;;5031248;28;20045;-77
2021/11/10 09:24:14;;;;;;;16.83;12.30;;;;;;;;;;5031287;28;20032;-77
2021/11/10 09:26:40;;;;;;;14.23;10.70;;;;;;;;;;5031346;28;20026;-74
2021/11/10 09:29:06;;;;;;;13.70;10.73;;;;;;;;;;5031123;28;20079;-77
2021/11/10 09:31:35;;;;;;;14.40;10.75;;;;;;;;;;5031250;28;20477;-79
2021/11/10 09:34:04;;;;;;;20.92;11.32;;;;;;;;;;5030940;28;20064;-77
2021/11/10 09:36:30;;;;;;;17.25;10.95;;;;;;;;;;5033766;28;20037;-78
2021/11/10 09:38:57;;;;;;;20.10;13.48;;;;;;;;;;5050613;28;20443;-74
2021/11/10 09:41:24;;;;;;;17.48;12.05;;;;;;;;;;5050316;28;20113;-74
2021/11/10 09:43:50;;;;;;;17.33;10.70;;;;;;;;;;5049375;28;20033;-76
2021/11/10 09:46:16;;;;;;;19.70;12.23;;;;;;;;;;5051000;28;20025;-76
2021/11/10 09:48:42;;;;;;;21.90;13.43;;;;;;;;;;5049300;28;20031;-79
2021/11/10 09:51:09;;;;;;;30.38;19.00;;;;;;;;;;5045045;28;20037;-77
2021/11/10 09:53:35;;;;;;;17.95;13.43;;;;;;;;;;5050052;28;20029;-76
2021/11/10 09:56:02;;;;;;;19.95;14.25;;;;;;;;;;5050191;28;20539;-75
2021/11/10 09:58:30;;;;;;;21.65;13.63;;;;;;;;;;5044644;28;20037;-76
2021/11/10 10:00:59;;;;;;;22.70;13.82;;;;;;;;;;5049819;28;20025;-75
2021/11/10 10:03:25;;;;;;;21.67;13.80;;;;;;;;;;5050715;28;20029;-77
2021/11/10 10:05:52;;;;;;;23.50;15.93;;;;;;;;;;5050817;28;20029;-80
2021/11/10 10:08:19;;;;;;;27.00;17.30;;;;;;;;;;5050332;28;20031;-77
2021/11/10 10:10:46;;;;;;;32.33;17.77;;;;;;;;;;5050533;28;20033;-73
2021/11/10 10:13:13;;;;;;;32.95;20.35;;;;;;;;;;5050470;28;20033;-77
2021/11/10 10:15:42;;;;;;;31.63;19.38;;;;;;;;;;5050721;28;20025;-74
2021/11/10 10:18:14;;;;;;;32.55;19.70;;;;;;;;;;5049214;28;20093;-77
2021/11/10 10:20:41;;;;;;;33.53;20.20;;;;;;;;;;5049441;28;20842;-79
2021/11/10 10:23:15;;;;;;;38.80;23.33;;;;;;;;;;5050303;28;20025;-75
2021/11/10 10:25:47;;;;;;;39.20;22.10;;;;;;;;;;5050747;28;20025;-77
2021/11/10 10:28:15;;;;;;;32.10;21.05;;;;;;;;;;5050401;28;20578;-77
2021/11/10 10:30:46;;;;;;;36.00;21.20;;;;;;;;;;5050709;28;20025;-77
2021/11/10 10:33:17;;;;;;;36.70;22.13;;;;;;;;;;5049190;28;20033;-75
2021/11/10 10:35:45;;;;;;;42.47;24.95;;;;;;;;;;5054010;28;20032;-79
2021/11/10 10:38:16;;;;;;;88.82;63.85;;;;;;;;;;5054324;28;20021;-77
2021/11/10 10:40:43;;;;;;;52.55;33.55;;;;;;;;;;5054203;28;20029;-76
2021/11/10 10:43:09;;;;;;;43.15;28.00;;;;;;;;;;5054251;28;20037;-77
2021/11/10 10:45:37;;;;;;;27.38;17.83;;;;;;;;;;5054346;28;20431;-79
2021/11/10 10:48:12;;;;;;;32.88;18.58;;;;;;;;;;5054199;28;20476;-76
2021/11/10 10:50:39;;;;;;;30.63;18.80;;;;;;;;;;5054200;28;20067;-75
2021/11/10 10:53:06;;;;;;;30.90;17.10;;;;;;;;;;5053866;28;20037;-77
2021/11/10 10:55:34;;;;;;;63.33;41.63;;;;;;;;;;5050176;28;20075;-77
2021/11/10 10:58:00;;;;;;;40.13;23.70;;;;;;;;;;5051261;28;20511;-78
2021/11/10 11:00:30;;;;;;;38.92;26.73;;;;;;;;;;5053757;28;20033;-76
2021/11/10 11:02:58;;;;;;;33.63;21.30;;;;;;;;;;5053826;28;20032;-77
2021/11/10 11:05:40;;;;;;;53.35;40.20;;;;;;;;;;5053626;28;20025;-77
2021/11/10 11:08:25;;;;;;;30.35;19.95;;;;;;;;;;5036245;28;20025;-76
2021/11/10 11:10:51;;;;;;;32.20;16.58;;;;;;;;;;5053647;28;20518;-78
2021/11/10 11:13:22;;;;;;;24.48;14.95;;;;;;;;;;5053710;28;20108;-73
2021/11/10 11:16:07;;;;;;;23.98;12.18;;;;;;;;;;5050932;28;20082;-78
2021/11/10 11:18:34;;;;;;;17.58;10.75;;;;;;;;;;5049851;28;20039;-76
2021/11/10 11:21:16;;;;;;;10.98;6.18;;;;;;;;;;5053056;28;20060;-77
2021/11/10 11:23:42;;;;;;;8.93;4.22;;;;;;;;;;5053553;28;20033;-79
2021/11/10 11:26:28;;;;;;;6.95;5.00;;;;;;;;;;5052420;28;20061;-79
2021/11/10 11:28:54;;;;;;;8.00;4.68;;;;;;;;;;5053222;28;20029;-78
2021/11/10 11:31:30;;;;;;;5.53;3.20;;;;;;;;;;5053029;28;20025;-80
2021/11/10 11:33:57;;;;;;;6.50;4.38;;;;;;;;;;5052485;28;20106;-81
2021/11/10 11:36:23;;;;;;;6.55;3.25;;;;;;;;;;5053406;28;20036;-74
2021/11/10 11:38:49;;;;;;;4.53;3.05;;;;;;;;;;5052796;28;20043;-77
2021/11/10 11:41:17;;;;;;;4.97;3.35;;;;;;;;;;5053067;28;20120;-80
2021/11/10 11:43:43;;;;;;;4.20;2.88;;;;;;;;;;5052790;28;20091;-79
2021/11/10 11:46:09;;;;;;;3.28;2.78;;;;;;;;;;5050504;28;20032;-76
2021/11/10 11:48:35;;;;;;;3.95;3.00;;;;;;;;;;5052515;28;20033;-76
2021/11/10 11:51:06;;;;;;;10.30;4.43;;;;;;;;;;5053169;28;20033;-80
2021/11/10 11:53:37;;;;;;;3.38;2.70;;;;;;;;;;5052938;28;20406;-80
2021/11/10 11:56:05;;;;;;;3.85;2.60;;;;;;;;;;5052753;28;20036;-77
2021/11/10 11:58:37;;;;;;;5.18;3.05;;;;;;;;;;5052539;28;20025;-80
2021/11/10 12:01:12;;;;;;;4.22;3.17;;;;;;;;;;5053092;28;20024;-80
2021/11/10 12:03:52;;;;;;;17.33;10.73;;;;;;;;;;5052587;28;20033;-82
2021/11/10 12:06:19;;;;;;;4.40;3.42;;;;;;;;;;5052918;28;20033;-76
2021/11/10 12:09:04;;;;;;;5.18;3.55;;;;;;;;;;5049898;28;20106;-79
2021/11/10 12:11:34;;;;;;;6.72;3.95;;;;;;;;;;5041106;28;20022;-77
2021/11/10 12:14:06;;;;;;;4.18;3.35;;;;;;;;;;5032648;28;20033;-78
2021/11/10 12:16:51;;;;;;;8.35;4.65;;;;;;;;;;5032185;28;20477;-79
2021/11/10 12:19:17;;;;;;;;;;;;;;;;;;5032867;28;20083;-81
2021/11/10 12:21:52;;;;;;;4.78;2.38;;;;;;;;;;5031950;28;19924;-79
2021/11/10 12:24:29;;;;;;;5.55;2.83;;;;;;;;;;5036695;28;20031;-79
2021/11/10 12:27:14;;;;;;;4.47;3.33;;;;;;;;;;5049828;28;20087;-79
2021/11/10 12:29:50;;;;;;;4.50;2.58;;;;;;;;;;5052022;28;20054;-81
2021/11/10 12:32:25;;;;;;;3.28;2.80;;;;;;;;;;5040587;28;20055;-78
2021/11/10 12:34:55;;;;;;;3.85;3.13;;;;;;;;;;5050109;28;20139;-81
2021/11/10 12:37:29;;;;;;;63.63;41.50;;;;;;;;;;5049428;28;20676;-82
2021/11/10 12:40:14;;;;;;;13.80;10.93;;;;;;;;;;5050812;28;20028;-79
2021/11/10 12:42:55;;;;;;;28.55;19.35;;;;;;;;;;5051976;28;20466;-80
2021/11/10 12:45:27;;;;;;;6.68;5.13;;;;;;;;;;5052327;28;20049;-70
2021/11/10 12:47:54;;;;;;;4.90;3.85;;;;;;;;;;5051527;28;20029;-78
2021/11/10 12:50:23;;;;;;;5.93;3.75;;;;;;;;;;5051805;28;20029;-82
2021/11/10 12:52:50;;;;;;;7.18;3.53;;;;;;;;;;5052721;28;20029;-77
2021/11/10 12:55:18;;;;;;;4.82;4.00;;;;;;;;;;5051604;28;20029;-82
2021/11/10 12:57:45;;;;;;;4.90;4.40;;;;;;;;;;5052607;28;20044;-79
2021/11/10 13:00:32;;;;;;;4.53;3.88;;;;;;;;;;5052453;28;20057;-78
2021/11/10 13:03:00;;;;;;;7.20;4.53;;;;;;;;;;5052611;28;20479;-83
2021/11/10 13:05:37;;;;;;;5.30;4.68;;;;;;;;;;5051908;28;20025;-80
2021/11/10 13:08:17;;;;;;;6.55;4.60;;;;;;;;;;5051022;28;20492;-77
2021/11/10 13:10:44;;;;;;;5.50;4.82;;;;;;;;;;5051573;28;20040;-79
2021/11/10 13:13:13;;;;;;;5.43;4.88;;;;;;;;;;5051678;28;20033;-80
2021/11/10 13:15:40;;;;;;;7.65;5.07;;;;;;;;;;5046920;28;20028;-77
2021/11/10 13:18:32;;;;;;;5.70;4.88;;;;;;;;;;5051448;28;20037;-76
2021/11/10 13:21:00;;;;;;;8.18;6.40;;;;;;;;;;5049846;28;20052;-81
2021/11/10 13:23:31;;;;;;;13.27;10.95;;;;;;;;;;5048228;28;20025;-78
2021/11/10 13:25:57;;;;;;;6.47;5.70;;;;;;;;;;5048415;28;20499;-77
2021/11/10 13:28:23;;;;;;;7.05;4.97;;;;;;;;;;5051572;28;20035;-77
2021/11/10 13:31:08;;;;;;;6.22;4.90;;;;;;;;;;5051464;28;20553;-80
2021/11/10 13:33:38;;;;;;;9.80;6.20;;;;;;;;;;5050718;28;20104;-80
2021/11/10 13:36:24;;;;;;;9.30;6.03;;;;;;;;;;5051346;28;20048;-79
2021/11/10 13:39:11;;;;;;;7.80;5.57;;;;;;;;;;5049733;28;20108;-78
2021/11/10 13:41:42;;;;;;;11.73;8.77;;;;;;;;;;5051965;28;20071;-82
2021/11/10 13:44:08;;;;;;;9.05;7.05;;;;;;;;;;5051737;28;20064;-78
2021/11/10 13:46:35;;;;;;;9.20;7.57;;;;;;;;;;5051754;28;20021;-79
2021/11/10 13:49:10;;;;;;;9.77;7.30;;;;;;;;;;5051657;28;20032;-79
2021/11/10 13:51:37;;;;;;;11.75;10.00;;;;;;;;;;5051886;28;20025;-80
2021/11/10 13:54:04;;;;;;;9.52;7.70;;;;;;;;;;5051543;28;20065;-77
2021/11/10 13:56:41;;;;;;;10.27;6.85;;;;;;;;;;5051865;28;20076;-80
2021/11/10 13:59:11;;;;;;;13.10;10.10;;;;;;;;;;5051669;28;20036;-80
2021/11/10 14:01:49;;;;;;;22.48;17.70;;;;;;;;;;5040974;28;20484;-84
2021/11/10 14:04:33;;;;;;;19.48;12.43;;;;;;;;;;5051378;28;20029;-81
2021/11/10 14:07:00;;;;;;;11.95;9.40;;;;;;;;;;5051666;28;20035;-76
2021/11/10 14:09:26;;;;;;;19.10;13.60;;;;;;;;;;5053568;28;20052;-78
2021/11/10 14:11:53;;;;;;;13.77;9.70;;;;;;;;;;5055537;28;20040;-85
2021/11/10 14:14:37;;;;;;;8.88;5.90;;;;;;;;;;5055856;28;20048;-85
2021/11/10 14:17:04;;;;;;;7.18;5.78;;;;;;;;;;5056111;28;20086;-80
2021/11/10 14:19:30;;;;;;;6.82;4.55;;;;;;;;;;5056030;28;20041;-78
2021/11/10 14:22:00;;;;;;;7.50;5.10;;;;;;;;;;5053891;28;20060;-80
2021/11/10 14:24:28;;;;;;;7.25;5.43;;;;;;;;;;5056031;28;20052;-78
2021/11/10 14:26:54;;;;;;;7.63;5.18;;;;;;;;;;5056218;28;20087;-81
2021/11/10 14:29:20;;;;;;;7.00;4.70;;;;;;;;;;5055194;28;20028;-80
2021/11/10 14:31:47;;;;;;;7.22;5.10;;;;;;;;;;5056009;28;20036;-83
2021/11/10 14:34:14;;;;;;;7.25;5.28;;;;;;;;;;5054041;28;20396;-76
2021/11/10 14:36:41;;;;;;;7.18;5.70;;;;;;;;;;5055071;28;20033;-78